sensor_id;sensor_type;location;lat;lon;timestamp;temperature;humidity
20650;DHT22;10484;48.736;9.332;2024-02-21T00:01:39;6.00;1.00
20650;DHT22;10484;48.736;9.332;2024-02-21T00:04:05;6.00;1.00
20650;DHT22;10484;48.736;9.332;2024-02-21T00:06:31;6.00;1.00
20650;DHT22;10484;48.736;9.332;2024-02-21T00:08:56;6.00;1.00
20650;DHT22;10484;48.736;9.332;2024-02-21T00:11:22;6.00;1.20
20650;DHT22;10484;48.736;9.332;2024-02-21T00:13:48;6.00;4.70
20650;DHT22;10484;48.736;9.332;2024-02-21T00:16:13;5.90;2.30
20650;DHT22;10484;48.736;9.332;2024-02-21T00:18:41;6.00;2.90
20650;DHT22;10484;48.736;9.332;2024-02-21T00:21:06;5.90;3.80
20650;DHT22;10484;48.736;9.332;2024-02-21T00:23:32;5.90;4.20
20650;DHT22;10484;48.736;9.332;2024-02-21T00:25:57;5.90;4.40
20650;DHT22;10484;48.736;9.332;2024-02-21T00:28:23;5.90;4.70
20650;DHT22;10484;48.736;9.332;2024-02-21T00:30:48;5.90;5.20
20650;DHT22;10484;48.736;9.332;2024-02-21T00:33:16;5.90;5.40
20650;DHT22;10484;48.736;9.332;2024-02-21T00:35:42;5.90;5.50
20650;DHT22;10484;48.736;9.332;2024-02-21T00:38:07;5.90;5.90
20650;DHT22;10484;48.736;9.332;2024-02-21T00:40:34;5.90;6.40
20650;DHT22;10484;48.736;9.332;2024-02-21T00:43:00;5.90;6.50
20650;DHT22;10484;48.736;9.332;2024-02-21T00:45:26;5.90;6.60
20650;DHT22;10484;48.736;9.332;2024-02-21T00:47:51;5.90;7.00
20650;DHT22;10484;48.736;9.332;2024-02-21T00:50:17;5.90;7.70
20650;DHT22;10484;48.736;9.332;2024-02-21T00:52:42;5.90;9.30
20650;DHT22;10484;48.736;9.332;2024-02-21T00:55:09;5.90;9.20
20650;DHT22;10484;48.736;9.332;2024-02-21T00:57:34;5.90;9.60
20650;DHT22;10484;48.736;9.332;2024-02-21T01:00:02;5.90;10.00
20650;DHT22;10484;48.736;9.332;2024-02-21T01:02:28;5.90;10.30
20650;DHT22;10484;48.736;9.332;2024-02-21T01:04:53;5.90;11.10
20650;DHT22;10484;48.736;9.332;2024-02-21T01:07:19;5.90;11.50
20650;DHT22;10484;48.736;9.332;2024-02-21T01:09:45;5.90;12.10
20650;DHT22;10484;48.736;9.332;2024-02-21T01:12:10;5.90;13.10
20650;DHT22;10484;48.736;9.332;2024-02-21T01:14:36;5.90;13.60
20650;DHT22;10484;48.736;9.332;2024-02-21T01:17:01;5.90;14.30
20650;DHT22;10484;48.736;9.332;2024-02-21T01:19:27;5.90;14.50
20650;DHT22;10484;48.736;9.332;2024-02-21T01:21:52;5.90;14.80
20650;DHT22;10484;48.736;9.332;2024-02-21T01:24:18;5.90;15.30
20650;DHT22;10484;48.736;9.332;2024-02-21T01:26:43;5.90;15.70
20650;DHT22;10484;48.736;9.332;2024-02-21T01:29:09;5.90;16.50
20650;DHT22;10484;48.736;9.332;2024-02-21T01:31:35;5.90;16.90
20650;DHT22;10484;48.736;9.332;2024-02-21T01:34:00;5.90;17.50
20650;DHT22;10484;48.736;9.332;2024-02-21T01:36:26;5.90;18.10
20650;DHT22;10484;48.736;9.332;2024-02-21T01:38:51;5.90;18.20
20650;DHT22;10484;48.736;9.332;2024-02-21T01:41:17;5.90;18.30
20650;DHT22;10484;48.736;9.332;2024-02-21T01:43:43;5.90;18.60
20650;DHT22;10484;48.736;9.332;2024-02-21T01:46:08;5.90;19.10
20650;DHT22;10484;48.736;9.332;2024-02-21T01:48:34;5.90;19.10
20650;DHT22;10484;48.736;9.332;2024-02-21T01:51:02;5.90;19.40
20650;DHT22;10484;48.736;9.332;2024-02-21T01:53:36;5.90;19.60
20650;DHT22;10484;48.736;9.332;2024-02-21T01:56:03;5.90;19.70
20650;DHT22;10484;48.736;9.332;2024-02-21T01:58:31;5.90;20.10
20650;DHT22;10484;48.736;9.332;2024-02-21T02:00:57;5.90;20.30
20650;DHT22;10484;48.736;9.332;2024-02-21T02:03:23;5.90;20.20
20650;DHT22;10484;48.736;9.332;2024-02-21T02:05:51;5.90;20.60
20650;DHT22;10484;48.736;9.332;2024-02-21T02:08:18;5.90;20.80
20650;DHT22;10484;48.736;9.332;2024-02-21T02:10:45;5.90;20.70
20650;DHT22;10484;48.736;9.332;2024-02-21T02:13:11;5.90;19.90
20650;DHT22;10484;48.736;9.332;2024-02-21T02:15:47;5.90;19.30
20650;DHT22;10484;48.736;9.332;2024-02-21T02:18:14;5.90;18.80
20650;DHT22;10484;48.736;9.332;2024-02-21T02:20:40;6.00;19.00
20650;DHT22;10484;48.736;9.332;2024-02-21T02:25:45;6.00;19.40
20650;DHT22;10484;48.736;9.332;2024-02-21T02:28:14;5.90;20.00
20650;DHT22;10484;48.736;9.332;2024-02-21T02:30:40;5.90;20.50
20650;DHT22;10484;48.736;9.332;2024-02-21T02:33:06;5.90;20.50
20650;DHT22;10484;48.736;9.332;2024-02-21T02:35:32;5.90;21.10
20650;DHT22;10484;48.736;9.332;2024-02-21T02:37:58;5.90;20.90
20650;DHT22;10484;48.736;9.332;2024-02-21T02:40:23;5.90;21.00
20650;DHT22;10484;48.736;9.332;2024-02-21T02:42:50;5.90;21.40
20650;DHT22;10484;48.736;9.332;2024-02-21T02:45:17;5.90;20.80
20650;DHT22;10484;48.736;9.332;2024-02-21T02:47:44;5.90;20.50
20650;DHT22;10484;48.736;9.332;2024-02-21T02:50:10;6.00;20.20
20650;DHT22;10484;48.736;9.332;2024-02-21T02:52:39;6.00;19.70
20650;DHT22;10484;48.736;9.332;2024-02-21T02:55:05;6.00;19.90
20650;DHT22;10484;48.736;9.332;2024-02-21T02:57:31;6.00;20.10
20650;DHT22;10484;48.736;9.332;2024-02-21T02:59:57;6.00;21.00
20650;DHT22;10484;48.736;9.332;2024-02-21T03:02:23;6.00;21.70
20650;DHT22;10484;48.736;9.332;2024-02-21T03:04:48;6.00;22.60
20650;DHT22;10484;48.736;9.332;2024-02-21T03:07:15;6.00;23.70
20650;DHT22;10484;48.736;9.332;2024-02-21T03:09:41;5.90;24.90
20650;DHT22;10484;48.736;9.332;2024-02-21T03:12:08;5.90;25.80
20650;DHT22;10484;48.736;9.332;2024-02-21T03:14:34;6.00;26.80
20650;DHT22;10484;48.736;9.332;2024-02-21T03:16:59;6.00;27.90
20650;DHT22;10484;48.736;9.332;2024-02-21T03:19:25;5.90;28.90
20650;DHT22;10484;48.736;9.332;2024-02-21T03:21:51;5.90;29.50
20650;DHT22;10484;48.736;9.332;2024-02-21T03:24:18;6.00;30.60
20650;DHT22;10484;48.736;9.332;2024-02-21T03:26:43;6.00;31.70
20650;DHT22;10484;48.736;9.332;2024-02-21T03:29:10;6.00;33.20
20650;DHT22;10484;48.736;9.332;2024-02-21T03:31:36;6.00;33.60
20650;DHT22;10484;48.736;9.332;2024-02-21T03:34:02;6.00;33.80
20650;DHT22;10484;48.736;9.332;2024-02-21T03:36:28;6.00;33.90
20650;DHT22;10484;48.736;9.332;2024-02-21T03:38:56;6.00;33.90
20650;DHT22;10484;48.736;9.332;2024-02-21T03:41:22;5.90;34.00
20650;DHT22;10484;48.736;9.332;2024-02-21T03:43:48;5.90;34.00
20650;DHT22;10484;48.736;9.332;2024-02-21T03:46:14;5.90;33.90
20650;DHT22;10484;48.736;9.332;2024-02-21T03:48:40;5.90;33.80
20650;DHT22;10484;48.736;9.332;2024-02-21T03:51:06;5.90;34.20
20650;DHT22;10484;48.736;9.332;2024-02-21T03:53:32;5.90;33.80
20650;DHT22;10484;48.736;9.332;2024-02-21T03:56:00;5.90;33.80
20650;DHT22;10484;48.736;9.332;2024-02-21T03:58:28;5.90;33.90
20650;DHT22;10484;48.736;9.332;2024-02-21T04:00:54;5.90;33.90
20650;DHT22;10484;48.736;9.332;2024-02-21T04:03:19;5.90;33.80
20650;DHT22;10484;48.736;9.332;2024-02-21T04:05:45;5.90;33.90
20650;DHT22;10484;48.736;9.332;2024-02-21T04:08:11;5.90;33.80
20650;DHT22;10484;48.736;9.332;2024-02-21T04:10:36;5.90;33.90
20650;DHT22;10484;48.736;9.332;2024-02-21T04:13:03;5.90;33.90
20650;DHT22;10484;48.736;9.332;2024-02-21T04:15:29;5.90;33.80
20650;DHT22;10484;48.736;9.332;2024-02-21T04:17:54;5.80;33.80
20650;DHT22;10484;48.736;9.332;2024-02-21T04:20:20;5.80;33.80
20650;DHT22;10484;48.736;9.332;2024-02-21T04:22:46;5.80;33.80
20650;DHT22;10484;48.736;9.332;2024-02-21T04:25:11;5.80;33.80
20650;DHT22;10484;48.736;9.332;2024-02-21T04:27:38;5.80;33.80
20650;DHT22;10484;48.736;9.332;2024-02-21T04:30:05;5.80;33.80
20650;DHT22;10484;48.736;9.332;2024-02-21T04:32:30;5.80;34.10
20650;DHT22;10484;48.736;9.332;2024-02-21T04:34:56;5.80;33.80
20650;DHT22;10484;48.736;9.332;2024-02-21T04:37:21;5.70;34.00
20650;DHT22;10484;48.736;9.332;2024-02-21T04:39:48;5.70;33.70
20650;DHT22;10484;48.736;9.332;2024-02-21T04:42:14;5.70;33.70
20650;DHT22;10484;48.736;9.332;2024-02-21T04:44:40;5.70;33.70
20650;DHT22;10484;48.736;9.332;2024-02-21T04:47:05;5.70;33.70
20650;DHT22;10484;48.736;9.332;2024-02-21T04:49:31;5.70;33.70
20650;DHT22;10484;48.736;9.332;2024-02-21T04:51:57;5.70;33.70
20650;DHT22;10484;48.736;9.332;2024-02-21T04:54:23;5.70;33.80
20650;DHT22;10484;48.736;9.332;2024-02-21T04:56:48;5.60;33.70
20650;DHT22;10484;48.736;9.332;2024-02-21T04:59:14;5.60;33.60
20650;DHT22;10484;48.736;9.332;2024-02-21T05:01:40;5.60;33.90
20650;DHT22;10484;48.736;9.332;2024-02-21T05:04:05;5.60;33.60
20650;DHT22;10484;48.736;9.332;2024-02-21T05:06:31;5.60;33.90
20650;DHT22;10484;48.736;9.332;2024-02-21T05:08:57;5.60;33.60
20650;DHT22;10484;48.736;9.332;2024-02-21T05:11:24;5.50;33.50
20650;DHT22;10484;48.736;9.332;2024-02-21T05:13:50;5.50;33.50
20650;DHT22;10484;48.736;9.332;2024-02-21T05:16:15;5.50;33.70
20650;DHT22;10484;48.736;9.332;2024-02-21T05:18:41;5.50;33.50
20650;DHT22;10484;48.736;9.332;2024-02-21T05:21:08;5.40;33.50
20650;DHT22;10484;48.736;9.332;2024-02-21T05:23:33;5.40;33.40
20650;DHT22;10484;48.736;9.332;2024-02-21T05:25:59;5.40;33.30
20650;DHT22;10484;48.736;9.332;2024-02-21T05:28:24;5.40;32.50
20650;DHT22;10484;48.736;9.332;2024-02-21T05:30:50;5.30;31.00
20650;DHT22;10484;48.736;9.332;2024-02-21T05:33:15;5.30;28.40
20650;DHT22;10484;48.736;9.332;2024-02-21T05:35:47;5.30;27.20
20650;DHT22;10484;48.736;9.332;2024-02-21T05:38:14;5.30;26.90
20650;DHT22;10484;48.736;9.332;2024-02-21T05:40:40;5.30;26.00
20650;DHT22;10484;48.736;9.332;2024-02-21T05:43:06;5.20;25.20
20650;DHT22;10484;48.736;9.332;2024-02-21T05:45:32;5.20;24.20
20650;DHT22;10484;48.736;9.332;2024-02-21T05:47:58;5.20;23.60
20650;DHT22;10484;48.736;9.332;2024-02-21T05:50:23;5.20;23.80
20650;DHT22;10484;48.736;9.332;2024-02-21T05:52:51;5.20;22.40
20650;DHT22;10484;48.736;9.332;2024-02-21T05:55:17;5.10;21.80
20650;DHT22;10484;48.736;9.332;2024-02-21T05:57:42;5.10;22.20
20650;DHT22;10484;48.736;9.332;2024-02-21T06:00:08;5.10;21.80
20650;DHT22;10484;48.736;9.332;2024-02-21T06:02:34;5.10;21.20
20650;DHT22;10484;48.736;9.332;2024-02-21T06:05:00;5.10;21.80
20650;DHT22;10484;48.736;9.332;2024-02-21T06:07:25;5.00;22.30
20650;DHT22;10484;48.736;9.332;2024-02-21T06:09:51;5.00;23.20
20650;DHT22;10484;48.736;9.332;2024-02-21T06:12:16;5.00;23.80
20650;DHT22;10484;48.736;9.332;2024-02-21T06:14:42;5.00;23.90
20650;DHT22;10484;48.736;9.332;2024-02-21T06:17:07;4.90;25.20
20650;DHT22;10484;48.736;9.332;2024-02-21T06:19:33;5.00;24.00
20650;DHT22;10484;48.736;9.332;2024-02-21T06:21:59;4.90;24.00
20650;DHT22;10484;48.736;9.332;2024-02-21T06:24:24;4.90;24.00
20650;DHT22;10484;48.736;9.332;2024-02-21T06:26:50;4.90;23.90
20650;DHT22;10484;48.736;9.332;2024-02-21T06:29:15;4.90;24.00
20650;DHT22;10484;48.736;9.332;2024-02-21T06:31:41;4.90;24.40
20650;DHT22;10484;48.736;9.332;2024-02-21T06:34:06;4.90;24.70
20650;DHT22;10484;48.736;9.332;2024-02-21T06:36:32;4.80;24.70
20650;DHT22;10484;48.736;9.332;2024-02-21T06:38:58;4.80;24.80
20650;DHT22;10484;48.736;9.332;2024-02-21T06:41:24;4.80;25.40
20650;DHT22;10484;48.736;9.332;2024-02-21T06:43:50;4.80;25.90
20650;DHT22;10484;48.736;9.332;2024-02-21T06:46:25;4.70;26.10
20650;DHT22;10484;48.736;9.332;2024-02-21T06:48:52;4.70;26.40
20650;DHT22;10484;48.736;9.332;2024-02-21T06:51:17;4.70;27.70
20650;DHT22;10484;48.736;9.332;2024-02-21T06:53:43;4.70;28.00
20650;DHT22;10484;48.736;9.332;2024-02-21T06:56:10;4.70;27.60
20650;DHT22;10484;48.736;9.332;2024-02-21T06:58:35;4.70;27.50
20650;DHT22;10484;48.736;9.332;2024-02-21T07:01:01;4.70;27.60
20650;DHT22;10484;48.736;9.332;2024-02-21T07:03:27;4.70;27.30
20650;DHT22;10484;48.736;9.332;2024-02-21T07:05:52;4.70;27.90
20650;DHT22;10484;48.736;9.332;2024-02-21T07:08:18;4.70;28.40
20650;DHT22;10484;48.736;9.332;2024-02-21T07:10:44;4.70;29.30
20650;DHT22;10484;48.736;9.332;2024-02-21T07:13:09;4.70;30.10
20650;DHT22;10484;48.736;9.332;2024-02-21T07:15:35;4.70;31.60
20650;DHT22;10484;48.736;9.332;2024-02-21T07:18:01;4.70;32.40
20650;DHT22;10484;48.736;9.332;2024-02-21T07:20:27;4.70;32.80
20650;DHT22;10484;48.736;9.332;2024-02-21T07:22:53;4.70;32.90
20650;DHT22;10484;48.736;9.332;2024-02-21T07:25:18;4.70;33.10
20650;DHT22;10484;48.736;9.332;2024-02-21T07:27:44;4.70;32.90
20650;DHT22;10484;48.736;9.332;2024-02-21T07:30:10;4.70;32.90
20650;DHT22;10484;48.736;9.332;2024-02-21T07:32:36;4.80;33.00
20650;DHT22;10484;48.736;9.332;2024-02-21T07:35:01;4.80;33.00
20650;DHT22;10484;48.736;9.332;2024-02-21T07:37:27;4.80;33.20
20650;DHT22;10484;48.736;9.332;2024-02-21T07:39:53;4.90;33.10
20650;DHT22;10484;48.736;9.332;2024-02-21T07:42:18;4.90;33.10
20650;DHT22;10484;48.736;9.332;2024-02-21T07:44:44;5.00;33.20
20650;DHT22;10484;48.736;9.332;2024-02-21T07:47:09;5.00;33.20
20650;DHT22;10484;48.736;9.332;2024-02-21T07:49:45;5.10;33.50
20650;DHT22;10484;48.736;9.332;2024-02-21T07:52:11;5.10;33.20
20650;DHT22;10484;48.736;9.332;2024-02-21T07:54:37;5.20;33.30
20650;DHT22;10484;48.736;9.332;2024-02-21T07:57:03;5.20;33.30
20650;DHT22;10484;48.736;9.332;2024-02-21T07:59:29;5.30;33.40
20650;DHT22;10484;48.736;9.332;2024-02-21T08:01:58;5.40;33.40
20650;DHT22;10484;48.736;9.332;2024-02-21T08:04:24;5.40;33.50
20650;DHT22;10484;48.736;9.332;2024-02-21T08:06:56;5.50;33.50
20650;DHT22;10484;48.736;9.332;2024-02-21T08:09:24;5.50;33.60
20650;DHT22;10484;48.736;9.332;2024-02-21T08:11:50;5.60;33.70
20650;DHT22;10484;48.736;9.332;2024-02-21T08:14:15;5.70;33.70
20650;DHT22;10484;48.736;9.332;2024-02-21T08:16:42;5.80;33.80
20650;DHT22;10484;48.736;9.332;2024-02-21T08:19:08;5.80;33.60
20650;DHT22;10484;48.736;9.332;2024-02-21T08:21:33;5.90;37.20
20650;DHT22;10484;48.736;9.332;2024-02-21T08:23:59;5.90;35.80
20650;DHT22;10484;48.736;9.332;2024-02-21T08:26:24;6.00;30.10
20650;DHT22;10484;48.736;9.332;2024-02-21T08:28:53;6.00;28.30
20650;DHT22;10484;48.736;9.332;2024-02-21T08:31:19;6.10;26.80
20650;DHT22;10484;48.736;9.332;2024-02-21T08:33:45;6.20;25.20
20650;DHT22;10484;48.736;9.332;2024-02-21T08:36:18;6.20;23.90
20650;DHT22;10484;48.736;9.332;2024-02-21T08:38:44;6.30;23.10
20650;DHT22;10484;48.736;9.332;2024-02-21T08:41:10;6.30;22.40
20650;DHT22;10484;48.736;9.332;2024-02-21T08:43:36;6.30;21.70
20650;DHT22;10484;48.736;9.332;2024-02-21T08:46:02;6.40;21.30
20650;DHT22;10484;48.736;9.332;2024-02-21T08:48:27;6.40;20.60
20650;DHT22;10484;48.736;9.332;2024-02-21T08:50:53;6.40;20.30
20650;DHT22;10484;48.736;9.332;2024-02-21T08:53:20;6.40;19.50
20650;DHT22;10484;48.736;9.332;2024-02-21T08:55:46;6.40;19.10
20650;DHT22;10484;48.736;9.332;2024-02-21T08:58:12;6.40;18.30
20650;DHT22;10484;48.736;9.332;2024-02-21T09:00:37;6.50;17.70
20650;DHT22;10484;48.736;9.332;2024-02-21T09:03:03;6.50;16.90
20650;DHT22;10484;48.736;9.332;2024-02-21T09:05:29;6.50;16.10
20650;DHT22;10484;48.736;9.332;2024-02-21T09:07:54;6.60;15.90
20650;DHT22;10484;48.736;9.332;2024-02-21T09:10:21;6.60;15.40
20650;DHT22;10484;48.736;9.332;2024-02-21T09:12:46;6.60;15.50
20650;DHT22;10484;48.736;9.332;2024-02-21T09:15:13;6.60;14.80
20650;DHT22;10484;48.736;9.332;2024-02-21T09:17:38;6.70;14.40
20650;DHT22;10484;48.736;9.332;2024-02-21T09:20:05;6.70;13.60
20650;DHT22;10484;48.736;9.332;2024-02-21T09:22:31;6.80;13.20
20650;DHT22;10484;48.736;9.332;2024-02-21T09:25:00;6.80;12.40
20650;DHT22;10484;48.736;9.332;2024-02-21T09:27:25;6.80;11.40
20650;DHT22;10484;48.736;9.332;2024-02-21T09:29:51;6.90;10.90
20650;DHT22;10484;48.736;9.332;2024-02-21T09:32:18;6.90;10.70
20650;DHT22;10484;48.736;9.332;2024-02-21T09:34:44;6.90;10.50
20650;DHT22;10484;48.736;9.332;2024-02-21T09:37:10;7.00;10.10
20650;DHT22;10484;48.736;9.332;2024-02-21T09:39:36;7.10;9.60
20650;DHT22;10484;48.736;9.332;2024-02-21T09:42:06;7.10;9.10
20650;DHT22;10484;48.736;9.332;2024-02-21T09:44:37;7.20;8.40
20650;DHT22;10484;48.736;9.332;2024-02-21T09:47:12;7.20;8.50
20650;DHT22;10484;48.736;9.332;2024-02-21T09:49:40;7.30;8.00
20650;DHT22;10484;48.736;9.332;2024-02-21T09:52:07;7.30;7.50
20650;DHT22;10484;48.736;9.332;2024-02-21T09:54:36;7.40;7.00
20650;DHT22;10484;48.736;9.332;2024-02-21T09:57:02;7.40;6.40
20650;DHT22;10484;48.736;9.332;2024-02-21T09:59:30;7.50;5.80
20650;DHT22;10484;48.736;9.332;2024-02-21T10:01:56;7.50;5.30
20650;DHT22;10484;48.736;9.332;2024-02-21T10:04:21;7.60;4.90
20650;DHT22;10484;48.736;9.332;2024-02-21T10:06:47;7.70;4.20
20650;DHT22;10484;48.736;9.332;2024-02-21T10:09:26;7.80;3.60
20650;DHT22;10484;48.736;9.332;2024-02-21T10:11:56;7.90;6.00
20650;DHT22;10484;48.736;9.332;2024-02-21T10:14:21;7.90;2.30
20650;DHT22;10484;48.736;9.332;2024-02-21T10:16:48;8.00;1.80
20650;DHT22;10484;48.736;9.332;2024-02-21T10:19:18;8.10;1.40
20650;DHT22;10484;48.736;9.332;2024-02-21T10:21:44;8.10;1.00
20650;DHT22;10484;48.736;9.332;2024-02-21T10:24:11;8.20;1.00
20650;DHT22;10484;48.736;9.332;2024-02-21T10:26:37;8.30;1.00
20650;DHT22;10484;48.736;9.332;2024-02-21T10:29:03;8.40;1.00
20650;DHT22;10484;48.736;9.332;2024-02-21T10:31:29;8.40;1.00
20650;DHT22;10484;48.736;9.332;2024-02-21T10:34:02;8.50;1.00
20650;DHT22;10484;48.736;9.332;2024-02-21T10:36:31;8.60;1.00
20650;DHT22;10484;48.736;9.332;2024-02-21T10:38:56;8.70;1.00
20650;DHT22;10484;48.736;9.332;2024-02-21T10:41:23;8.80;1.00
20650;DHT22;10484;48.736;9.332;2024-02-21T10:43:54;8.80;1.00
20650;DHT22;10484;48.736;9.332;2024-02-21T10:46:21;8.90;1.00
20650;DHT22;10484;48.736;9.332;2024-02-21T10:48:50;8.90;1.00
20650;DHT22;10484;48.736;9.332;2024-02-21T10:51:19;9.00;1.00
20650;DHT22;10484;48.736;9.332;2024-02-21T10:56:38;9.20;1.00
20650;DHT22;10484;48.736;9.332;2024-02-21T10:59:06;9.20;1.00
20650;DHT22;10484;48.736;9.332;2024-02-21T11:01:32;9.30;1.00
20650;DHT22;10484;48.736;9.332;2024-02-21T11:04:04;9.30;1.00
20650;DHT22;10484;48.736;9.332;2024-02-21T11:06:30;9.40;1.00
20650;DHT22;10484;48.736;9.332;2024-02-21T11:09:07;9.40;1.00
20650;DHT22;10484;48.736;9.332;2024-02-21T11:11:34;9.50;1.00
20650;DHT22;10484;48.736;9.332;2024-02-21T11:14:11;9.50;1.00
20650;DHT22;10484;48.736;9.332;2024-02-21T11:16:40;9.50;1.00
20650;DHT22;10484;48.736;9.332;2024-02-21T11:19:31;9.60;1.00
20650;DHT22;10484;48.736;9.332;2024-02-21T11:21:57;9.60;1.00
20650;DHT22;10484;48.736;9.332;2024-02-21T11:24:27;9.70;1.00
20650;DHT22;10484;48.736;9.332;2024-02-21T11:27:15;9.70;1.00
20650;DHT22;10484;48.736;9.332;2024-02-21T11:29:55;9.70;1.00
20650;DHT22;10484;48.736;9.332;2024-02-21T11:32:21;9.80;1.00
20650;DHT22;10484;48.736;9.332;2024-02-21T11:34:57;9.80;1.00
20650;DHT22;10484;48.736;9.332;2024-02-21T11:37:27;9.90;1.00
20650;DHT22;10484;48.736;9.332;2024-02-21T11:39:57;9.90;1.00
20650;DHT22;10484;48.736;9.332;2024-02-21T11:42:22;10.00;1.00
20650;DHT22;10484;48.736;9.332;2024-02-21T11:44:50;10.00;1.00
20650;DHT22;10484;48.736;9.332;2024-02-21T11:47:15;10.00;1.00
20650;DHT22;10484;48.736;9.332;2024-02-21T11:49:47;10.10;1.00
20650;DHT22;10484;48.736;9.332;2024-02-21T11:52:15;10.20;1.00
20650;DHT22;10484;48.736;9.332;2024-02-21T11:54:42;10.20;1.00
20650;DHT22;10484;48.736;9.332;2024-02-21T11:57:08;10.30;1.00
20650;DHT22;10484;48.736;9.332;2024-02-21T11:59:34;10.30;1.00
20650;DHT22;10484;48.736;9.332;2024-02-21T12:02:00;10.40;1.00
20650;DHT22;10484;48.736;9.332;2024-02-21T12:04:26;10.50;1.00
20650;DHT22;10484;48.736;9.332;2024-02-21T12:06:53;10.50;1.00
20650;DHT22;10484;48.736;9.332;2024-02-21T12:09:19;10.50;1.00
20650;DHT22;10484;48.736;9.332;2024-02-21T12:11:45;10.60;1.00
20650;DHT22;10484;48.736;9.332;2024-02-21T12:14:16;10.60;1.00
20650;DHT22;10484;48.736;9.332;2024-02-21T12:16:42;10.70;1.00
20650;DHT22;10484;48.736;9.332;2024-02-21T12:19:10;10.70;1.00
20650;DHT22;10484;48.736;9.332;2024-02-21T12:21:35;10.70;1.00
20650;DHT22;10484;48.736;9.332;2024-02-21T12:26:38;10.80;1.00
20650;DHT22;10484;48.736;9.332;2024-02-21T12:29:04;10.90;1.00
20650;DHT22;10484;48.736;9.332;2024-02-21T12:31:29;10.90;1.00
20650;DHT22;10484;48.736;9.332;2024-02-21T12:33:55;10.90;1.00
20650;DHT22;10484;48.736;9.332;2024-02-21T12:36:20;10.90;1.00
20650;DHT22;10484;48.736;9.332;2024-02-21T12:38:46;11.00;1.00
20650;DHT22;10484;48.736;9.332;2024-02-21T12:41:14;11.00;1.00
20650;DHT22;10484;48.736;9.332;2024-02-21T12:43:40;11.00;1.00
20650;DHT22;10484;48.736;9.332;2024-02-21T12:46:05;11.00;1.00
20650;DHT22;10484;48.736;9.332;2024-02-21T12:48:33;11.00;1.00
20650;DHT22;10484;48.736;9.332;2024-02-21T12:50:59;11.00;1.00
20650;DHT22;10484;48.736;9.332;2024-02-21T12:53:25;11.00;1.00
20650;DHT22;10484;48.736;9.332;2024-02-21T12:55:51;11.10;1.00
20650;DHT22;10484;48.736;9.332;2024-02-21T12:58:17;11.10;1.00
20650;DHT22;10484;48.736;9.332;2024-02-21T13:00:42;11.20;1.00
20650;DHT22;10484;48.736;9.332;2024-02-21T13:03:08;11.50;1.00
20650;DHT22;10484;48.736;9.332;2024-02-21T13:05:37;11.70;1.00
20650;DHT22;10484;48.736;9.332;2024-02-21T13:08:02;11.90;1.00
20650;DHT22;10484;48.736;9.332;2024-02-21T13:10:28;12.00;1.00
20650;DHT22;10484;48.736;9.332;2024-02-21T13:12:53;12.10;1.00
20650;DHT22;10484;48.736;9.332;2024-02-21T13:15:20;12.20;1.00
20650;DHT22;10484;48.736;9.332;2024-02-21T13:17:45;12.20;1.00
20650;DHT22;10484;48.736;9.332;2024-02-21T13:20:11;12.30;1.00
20650;DHT22;10484;48.736;9.332;2024-02-21T13:22:37;12.30;1.00
20650;DHT22;10484;48.736;9.332;2024-02-21T13:25:04;12.30;1.00
20650;DHT22;10484;48.736;9.332;2024-02-21T13:27:30;12.30;1.00
20650;DHT22;10484;48.736;9.332;2024-02-21T13:29:56;12.30;1.00
20650;DHT22;10484;48.736;9.332;2024-02-21T13:32:21;12.20;1.00
20650;DHT22;10484;48.736;9.332;2024-02-21T13:34:47;12.30;1.00
20650;DHT22;10484;48.736;9.332;2024-02-21T13:37:13;12.30;1.00
20650;DHT22;10484;48.736;9.332;2024-02-21T13:39:40;12.30;1.00
20650;DHT22;10484;48.736;9.332;2024-02-21T13:42:05;12.30;1.00
20650;DHT22;10484;48.736;9.332;2024-02-21T13:44:32;12.30;1.00
20650;DHT22;10484;48.736;9.332;2024-02-21T13:46:57;12.30;1.00
20650;DHT22;10484;48.736;9.332;2024-02-21T13:49:23;12.30;1.00
20650;DHT22;10484;48.736;9.332;2024-02-21T13:51:49;12.30;1.00
20650;DHT22;10484;48.736;9.332;2024-02-21T13:54:14;12.30;1.00
20650;DHT22;10484;48.736;9.332;2024-02-21T13:56:42;12.30;1.00
20650;DHT22;10484;48.736;9.332;2024-02-21T13:59:08;12.30;1.00
20650;DHT22;10484;48.736;9.332;2024-02-21T14:01:34;12.30;1.00
20650;DHT22;10484;48.736;9.332;2024-02-21T14:04:01;12.30;1.00
20650;DHT22;10484;48.736;9.332;2024-02-21T14:06:27;12.30;1.00
20650;DHT22;10484;48.736;9.332;2024-02-21T14:08:52;12.20;1.00
20650;DHT22;10484;48.736;9.332;2024-02-21T14:11:18;12.20;1.00
20650;DHT22;10484;48.736;9.332;2024-02-21T14:13:44;12.20;1.00
20650;DHT22;10484;48.736;9.332;2024-02-21T14:16:10;12.20;1.00
20650;DHT22;10484;48.736;9.332;2024-02-21T14:18:39;12.20;1.00
20650;DHT22;10484;48.736;9.332;2024-02-21T14:21:06;12.20;1.00
20650;DHT22;10484;48.736;9.332;2024-02-21T14:23:31;12.20;1.00
20650;DHT22;10484;48.736;9.332;2024-02-21T14:25:59;12.20;1.00
20650;DHT22;10484;48.736;9.332;2024-02-21T14:28:24;12.20;1.00
20650;DHT22;10484;48.736;9.332;2024-02-21T14:30:50;12.30;1.00
20650;DHT22;10484;48.736;9.332;2024-02-21T14:33:19;12.30;1.00
20650;DHT22;10484;48.736;9.332;2024-02-21T14:35:44;12.20;1.00
20650;DHT22;10484;48.736;9.332;2024-02-21T14:38:10;12.20;1.00
20650;DHT22;10484;48.736;9.332;2024-02-21T14:40:35;12.20;1.00
20650;DHT22;10484;48.736;9.332;2024-02-21T14:43:01;12.20;1.00
20650;DHT22;10484;48.736;9.332;2024-02-21T14:45:27;12.30;1.00
20650;DHT22;10484;48.736;9.332;2024-02-21T14:47:52;12.30;1.00
20650;DHT22;10484;48.736;9.332;2024-02-21T14:50:18;12.30;1.00
20650;DHT22;10484;48.736;9.332;2024-02-21T14:52:44;12.30;1.00
20650;DHT22;10484;48.736;9.332;2024-02-21T14:55:13;12.30;1.00
20650;DHT22;10484;48.736;9.332;2024-02-21T14:57:39;12.30;1.00
20650;DHT22;10484;48.736;9.332;2024-02-21T15:00:07;12.40;1.00
20650;DHT22;10484;48.736;9.332;2024-02-21T15:02:34;12.50;1.00
20650;DHT22;10484;48.736;9.332;2024-02-21T15:05:00;12.40;1.00
20650;DHT22;10484;48.736;9.332;2024-02-21T15:07:26;12.50;1.00
20650;DHT22;10484;48.736;9.332;2024-02-21T15:09:52;12.40;1.00
20650;DHT22;10484;48.736;9.332;2024-02-21T15:12:18;12.50;1.00
20650;DHT22;10484;48.736;9.332;2024-02-21T15:14:44;12.50;1.00
20650;DHT22;10484;48.736;9.332;2024-02-21T15:17:11;12.40;1.00
20650;DHT22;10484;48.736;9.332;2024-02-21T15:19:37;12.50;1.00
20650;DHT22;10484;48.736;9.332;2024-02-21T15:22:04;12.50;1.00
20650;DHT22;10484;48.736;9.332;2024-02-21T15:24:30;12.40;1.00
20650;DHT22;10484;48.736;9.332;2024-02-21T15:26:55;12.40;1.00
20650;DHT22;10484;48.736;9.332;2024-02-21T15:29:21;12.50;1.00
20650;DHT22;10484;48.736;9.332;2024-02-21T15:31:48;12.40;1.00
20650;DHT22;10484;48.736;9.332;2024-02-21T15:34:14;12.40;1.00
20650;DHT22;10484;48.736;9.332;2024-02-21T15:36:41;12.40;1.00
20650;DHT22;10484;48.736;9.332;2024-02-21T15:39:08;12.40;1.00
20650;DHT22;10484;48.736;9.332;2024-02-21T15:41:33;12.40;1.00
20650;DHT22;10484;48.736;9.332;2024-02-21T15:43:59;12.50;1.00
20650;DHT22;10484;48.736;9.332;2024-02-21T15:46:25;12.50;1.00
20650;DHT22;10484;48.736;9.332;2024-02-21T15:48:51;12.40;1.00
20650;DHT22;10484;48.736;9.332;2024-02-21T15:51:19;12.50;1.00
20650;DHT22;10484;48.736;9.332;2024-02-21T15:53:46;12.40;1.00